createdAt,value
2023-04-18T00:03:58.477Z,1025.5
2023-04-18T00:18:54.172Z,1025.5
2023-04-18T00:33:50.604Z,1025.4
2023-04-18T00:48:46.455Z,1025.5
2023-04-18T01:03:43.017Z,1025.5
2023-04-18T01:18:39.121Z,1025.4
2023-04-18T01:33:34.974Z,1025.3
2023-04-18T01:48:30.523Z,1025.2
2023-04-18T02:03:26.985Z,1025.1
2023-04-18T02:18:22.837Z,1025.2
2023-04-18T02:33:18.774Z,1025.1
2023-04-18T02:48:14.924Z,1025.1
2023-04-18T03:03:11.441Z,1025.2
2023-04-18T03:18:07.753Z,1025.2
2023-04-18T03:33:03.291Z,1025.2
2023-04-18T03:47:59.140Z,1025.2
2023-04-18T04:02:55.791Z,1025.3
2023-04-18T04:17:52.113Z,1025.4
2023-04-18T04:32:48.119Z,1025.5
2023-04-18T04:47:44.659Z,1025.6
2023-04-18T05:02:41.183Z,1025.8
2023-04-18T05:17:37.858Z,1025.8
2023-04-18T05:32:34.266Z,1025.9
2023-04-18T05:47:31.033Z,1025.9
2023-04-18T06:02:27.949Z,1025.9
2023-04-18T06:17:24.587Z,1025.8
2023-04-18T06:32:20.717Z,1025.9
2023-04-18T06:47:16.817Z,1025.8
2023-04-18T07:02:13.584Z,1025.9
2023-04-18T07:17:10.244Z,1025.9
2023-04-18T07:32:08.428Z,1025.8
2023-04-18T07:47:03.751Z,1025.9
2023-04-18T08:02:00.162Z,1026
2023-04-18T08:16:57.342Z,1026.1
2023-04-18T08:31:53.955Z,1026.1
2023-04-18T08:46:50.540Z,1026.2
2023-04-18T09:01:47.104Z,1026.2
2023-04-18T09:16:43.780Z,1026.1
2023-04-18T09:31:39.914Z,1026
2023-04-18T09:46:37.209Z,1025.8
2023-04-18T10:01:33.037Z,1025.8
2023-04-18T10:16:29.605Z,1025.8
2023-04-18T10:31:25.613Z,1025.7
2023-04-18T10:46:31.522Z,1025.6
2023-04-18T11:01:18.407Z,1025.5
2023-04-18T11:16:14.060Z,1025.4
2023-04-18T11:31:10.770Z,1025.2
2023-04-18T11:46:07.659Z,1025.1
2023-04-18T12:01:04.499Z,1025.1
2023-04-18T12:16:01.397Z,1025.1
2023-04-18T12:30:58.214Z,1025.2
2023-04-18T12:45:54.484Z,1025
2023-04-18T13:00:51.109Z,1025
2023-04-18T13:15:46.786Z,1024.9
2023-04-18T13:30:42.740Z,1024.9
2023-04-18T13:45:38.564Z,1024.8
2023-04-18T14:00:34.953Z,1024.8
2023-04-18T14:15:31.519Z,1024.9
2023-04-18T14:30:27.204Z,1024.9
2023-04-18T14:45:23.543Z,1024.9
2023-04-18T15:00:19.739Z,1024.9
2023-04-18T15:15:16.676Z,1024.9
2023-04-18T15:30:12.679Z,1024.7
2023-04-18T15:45:09.118Z,1024.7
2023-04-18T16:00:04.677Z,1024.6
2023-04-18T16:15:00.818Z,1024.5
2023-04-18T16:29:57.468Z,1024.6
2023-04-18T16:44:53.327Z,1024.6
2023-04-18T16:59:49.795Z,1024.7
2023-04-18T17:14:45.696Z,1024.7
2023-04-18T17:29:42.030Z,1024.8
2023-04-18T17:44:37.188Z,1024.9
2023-04-18T17:59:32.459Z,1025.2
2023-04-18T18:14:28.133Z,1025.3
2023-04-18T18:29:23.879Z,1025.5
2023-04-18T18:44:20.261Z,1025.6
2023-04-18T18:59:16.351Z,1025.9
2023-04-18T19:14:12.023Z,1025.9
2023-04-18T19:29:07.909Z,1026
2023-04-18T19:44:04.145Z,1026.1
2023-04-18T19:58:59.828Z,1026.2
2023-04-18T20:13:55.791Z,1026.1
2023-04-18T20:28:51.679Z,1026.1
2023-04-18T20:43:48.219Z,1026.1
2023-04-18T20:58:44.226Z,1026.1
2023-04-18T21:13:40.400Z,1026.2
2023-04-18T21:28:36.853Z,1026.3
2023-04-18T21:43:32.732Z,1026.3
2023-04-18T21:58:28.993Z,1026.4
2023-04-18T22:13:25.030Z,1026.3
2023-04-18T22:28:20.961Z,1026.3
2023-04-18T22:43:17.262Z,1026.3
2023-04-18T22:58:12.487Z,1026.3
2023-04-18T23:13:08.678Z,1026.4
2023-04-18T23:28:04.607Z,1026.4
2023-04-18T23:43:00.776Z,1026.4
2023-04-18T23:57:57.096Z,1026.3
